ロサンゼルス の空港の天気 - METARとTAF

ロサンゼルス国際空港 ( KLAX / LAX ) - アメリカ合衆国 カリフォルニア州ロサンゼルス
飛行場実況気象(Metar)
観測時間03/30 02:53 PDT (03/30 09:53 UTC)
風向・風速北東 2m/s
視程10km以上
天気現象
なし
気温13.9℃
湿度93%
気圧1014.6hPa
METARKLAX 300953Z 05003KT 9SM CLR 14/13 A2997 RMK AO2 SLP146 T01390128
過去の天気等 Google飛行場航空写真 Wunderground天気予報

過去48時間のMETAR

飛行場予報(TAF)
発表時間: 3/30 02:05 PDT (3/30 09:05 UTC)
予報対象時間: 30日2時 PDT ~ 31日5時 PDT
風向・風速不定 2m/s
視程10km以上
なし
30日10時 PDT から
風向・風速西南西 5m/s
視程10km以上
全天の4割程度の雲 雲底高度 7,620m
30日14時 PDT から
風向・風速西 10m/s 瞬間風速 15m/s
視程10km以上
全天の4割程度の雲 雲底高度 7,620m
30日20時 PDT から
風向・風速北北西 5m/s
視程10km以上
全天の4割程度の雲 雲底高度 7,620m
31日0時 PDT から
風向・風速北 8m/s 瞬間風速 11m/s
視程10km以上
なし
KLAX 300905Z 3009/3112 VRB03KT P6SM SKC
FM301700 25010KT P6SM SCT250
FM302100 27020G30KT P6SM SCT250
FM310300 33010KT P6SM SCT250
FM310700 36015G22KT P6SM SKC